Time;durP1;ratioP1;P1;durP2;ratioP2;P2;SDS_P1;SDS_P2;PMS_P1;PMS_P2;Temp;Humidity;BMP_temperature;BMP_pressure;BME280_temperature;BME280_humidity;BME280_pressure;Samples;Min_cycle;Max_cycle;Signal;HPM_P1;HPM_P2
2022/06/29 00:01:55;;;;;;;0.40;0.40;;;20.30;99.90;;;;;;5135072;28;20223;-71
2022/06/29 00:04:44;;;;;;;0.40;0.40;;;20.20;99.90;;;;;;5137015;28;20200;-70
2022/06/29 00:07:32;;;;;;;0.40;0.40;;;20.20;99.90;;;;;;5136090;28;20196;-70
2022/06/29 00:10:20;;;;;;;0.40;0.40;;;20.20;99.90;;;;;;5134777;28;20205;-70
2022/06/29 00:13:10;;;;;;;0.40;0.40;;;20.10;99.90;;;;;;5135114;28;20233;-70
2022/06/29 00:16:00;;;;;;;0.47;0.43;;;20.10;99.90;;;;;;5132950;28;20209;-70
2022/06/29 00:18:48;;;;;;;0.40;0.40;;;20.00;99.90;;;;;;5135639;28;20199;-69
2022/06/29 00:21:36;;;;;;;0.40;0.40;;;20.10;99.90;;;;;;5135583;28;20245;-70
2022/06/29 00:24:24;;;;;;;0.40;0.40;;;20.00;99.90;;;;;;5136053;28;20229;-70
2022/06/29 00:27:13;;;;;;;0.40;0.40;;;20.00;99.90;;;;;;5137719;27;20214;-69
2022/06/29 00:30:02;;;;;;;0.40;0.40;;;19.90;99.90;;;;;;5135296;28;20183;-69
2022/06/29 00:32:50;;;;;;;0.40;0.40;;;19.90;99.90;;;;;;5133907;28;20230;-71
2022/06/29 00:35:38;;;;;;;0.40;0.40;;;19.80;99.90;;;;;;5133125;28;20191;-70
2022/06/29 00:38:26;;;;;;;0.40;0.40;;;19.80;99.90;;;;;;5135072;28;20225;-69
2022/06/29 00:41:14;;;;;;;0.40;0.40;;;19.60;99.90;;;;;;5135028;28;20261;-70
2022/06/29 00:44:03;;;;;;;0.40;0.40;;;19.70;99.90;;;;;;5136484;28;20183;-70
2022/06/29 00:46:54;;;;;;;0.40;0.40;;;19.70;99.90;;;;;;5134510;28;20239;-71
2022/06/29 00:49:42;;;;;;;0.40;0.40;;;19.70;99.90;;;;;;5133391;28;20183;-70
2022/06/29 00:52:32;;;;;;;0.40;0.40;;;19.60;99.90;;;;;;5131561;28;20243;-70
2022/06/29 00:55:25;;;;;;;0.40;0.40;;;19.60;99.90;;;;;;5135362;28;20217;-70
2022/06/29 00:58:14;;;;;;;0.40;0.40;;;19.60;99.90;;;;;;5133679;28;20180;-71
2022/06/29 01:01:04;;;;;;;0.40;0.40;;;19.50;99.90;;;;;;5134642;28;20204;-68
2022/06/29 01:03:54;;;;;;;0.40;0.40;;;19.40;99.90;;;;;;5135003;28;20195;-70
2022/06/29 01:06:42;;;;;;;0.40;0.40;;;19.40;99.90;;;;;;5134393;28;20247;-69
2022/06/29 01:09:30;;;;;;;0.40;0.40;;;19.50;99.90;;;;;;5129752;28;20199;-70
2022/06/29 01:12:19;;;;;;;0.40;0.40;;;19.40;99.90;;;;;;5134685;28;20617;-71
2022/06/29 01:15:09;;;;;;;0.40;0.40;;;19.30;99.90;;;;;;5135064;28;20611;-70
2022/06/29 01:17:57;;;;;;;0.40;0.40;;;19.40;99.90;;;;;;5133973;28;20195;-69
2022/06/29 01:20:47;;;;;;;0.40;0.40;;;19.30;99.90;;;;;;5134184;28;20209;-69
2022/06/29 01:23:36;;;;;;;10.40;7.80;;;19.30;99.90;;;;;;5133908;28;20215;-70
2022/06/29 01:26:24;;;;;;;0.40;0.40;;;19.40;99.90;;;;;;5130623;28;20199;-70
2022/06/29 01:29:13;;;;;;;0.40;0.40;;;19.20;99.90;;;;;;5134364;28;20203;-69
2022/06/29 01:32:01;;;;;;;0.40;0.40;;;19.20;99.90;;;;;;5133255;28;20249;-70
2022/06/29 01:34:50;;;;;;;0.40;0.40;;;19.30;99.90;;;;;;5133897;28;20202;-70
2022/06/29 01:37:38;;;;;;;0.40;0.40;;;19.20;99.90;;;;;;5134305;28;20229;-69
2022/06/29 01:40:28;;;;;;;0.40;0.40;;;19.20;99.90;;;;;;5134349;28;20199;-71
2022/06/29 01:43:16;;;;;;;0.40;0.40;;;19.10;99.90;;;;;;5130741;28;20226;-71
2022/06/29 01:46:04;;;;;;;0.40;0.40;;;19.10;99.90;;;;;;5128995;28;20225;-69
2022/06/29 01:48:52;;;;;;;0.40;0.40;;;19.10;99.90;;;;;;5126374;28;20199;-71
2022/06/29 01:51:41;;;;;;;0.40;0.40;;;19.10;99.90;;;;;;5139593;28;20223;-70
2022/06/29 01:54:29;;;;;;;0.40;0.40;;;19.00;99.90;;;;;;5136780;28;20221;-70
2022/06/29 01:57:19;;;;;;;0.40;0.40;;;19.00;99.90;;;;;;5137812;28;20204;-70
2022/06/29 02:00:08;;;;;;;0.40;0.40;;;18.90;99.90;;;;;;5119681;28;20195;-71
2022/06/29 02:02:56;;;;;;;0.40;0.40;;;18.90;99.90;;;;;;5129927;28;20215;-69
2022/06/29 02:05:44;;;;;;;0.40;0.40;;;18.90;99.90;;;;;;5137765;28;20209;-71
2022/06/29 02:08:33;;;;;;;0.40;0.40;;;18.80;99.90;;;;;;5137777;28;20199;-71
2022/06/29 02:11:23;;;;;;;0.40;0.40;;;18.80;99.90;;;;;;5137547;28;20213;-70
2022/06/29 02:14:13;;;;;;;0.40;0.40;;;18.80;99.90;;;;;;5138355;28;20200;-70
2022/06/29 02:17:01;;;;;;;0.40;0.40;;;18.80;99.90;;;;;;5137272;28;20205;-69
2022/06/29 02:19:49;;;;;;;0.50;0.50;;;18.70;99.90;;;;;;5136780;28;20679;-70
2022/06/29 02:22:37;;;;;;;0.40;0.40;;;18.70;99.90;;;;;;5137442;28;20227;-70
2022/06/29 02:25:25;;;;;;;0.40;0.40;;;18.70;99.90;;;;;;5136554;28;20203;-70
2022/06/29 02:28:13;;;;;;;0.80;0.70;;;18.70;99.90;;;;;;5137032;28;20179;-69
2022/06/29 02:37:16;;;;;;;0.40;0.40;;;18.60;99.90;;;;;;5136741;28;20191;-70
2022/06/29 02:40:05;;;;;;;0.40;0.40;;;18.60;99.90;;;;;;5134169;28;20203;-69
2022/06/29 02:42:53;;;;;;;0.40;0.40;;;18.60;99.90;;;;;;5136527;28;20244;-69
2022/06/29 02:45:50;;;;;;;0.40;0.40;;;18.50;99.90;;;;;;5136648;28;20195;-72
2022/06/29 02:48:39;;;;;;;0.40;0.40;;;18.50;99.90;;;;;;5133280;28;20246;-71
2022/06/29 02:51:27;;;;;;;0.40;0.40;;;18.50;99.90;;;;;;5134987;28;20203;-70
2022/06/29 02:54:16;;;;;;;0.40;0.40;;;18.50;99.90;;;;;;5135119;28;20225;-69
2022/06/29 02:57:05;;;;;;;0.40;0.40;;;18.40;99.90;;;;;;5135450;28;20202;-71
2022/06/29 02:59:53;;;;;;;0.40;0.40;;;18.40;99.90;;;;;;5134357;28;20225;-71
2022/06/29 03:02:41;;;;;;;0.40;0.40;;;18.40;99.90;;;;;;5135147;28;20236;-71
2022/06/29 03:05:30;;;;;;;0.40;0.40;;;18.40;99.90;;;;;;5132379;28;20230;-70
2022/06/29 03:08:18;;;;;;;0.40;0.40;;;18.40;99.90;;;;;;5135387;28;20210;-71
2022/06/29 03:11:07;;;;;;;0.40;0.40;;;18.40;99.90;;;;;;5133441;28;20229;-69
2022/06/29 03:13:55;;;;;;;0.40;0.40;;;18.40;99.90;;;;;;5130723;28;20215;-71
2022/06/29 03:16:43;;;;;;;0.40;0.40;;;18.30;99.90;;;;;;5132153;28;20195;-70
2022/06/29 03:19:31;;;;;;;0.40;0.40;;;18.40;99.90;;;;;;5121389;28;20202;-71
2022/06/29 03:22:20;;;;;;;0.40;0.40;;;18.40;99.90;;;;;;5116337;28;20220;-71
2022/06/29 03:25:09;;;;;;;0.40;0.40;;;18.40;99.90;;;;;;5117020;28;20199;-70
2022/06/29 03:27:57;;;;;;;0.40;0.40;;;18.40;99.90;;;;;;5116028;28;20256;-71
2022/06/29 03:30:45;;;;;;;0.40;0.40;;;18.40;99.90;;;;;;5116540;27;20206;-71
2022/06/29 03:33:33;;;;;;;0.40;0.40;;;18.50;99.90;;;;;;5114202;28;20704;-71
2022/06/29 03:36:21;;;;;;;0.40;0.40;;;18.50;99.90;;;;;;5115562;28;20200;-70
2022/06/29 03:39:11;;;;;;;0.40;0.40;;;18.60;99.90;;;;;;5114076;28;20204;-71
2022/06/29 03:41:59;;;;;;;0.40;0.40;;;18.60;99.90;;;;;;5116129;27;20219;-71
2022/06/29 03:44:47;;;;;;;0.40;0.40;;;18.60;99.90;;;;;;5115772;28;20199;-71
2022/06/29 03:47:36;;;;;;;0.40;0.40;;;18.70;99.90;;;;;;5114526;28;20324;-70
2022/06/29 03:50:24;;;;;;;0.40;0.40;;;18.70;99.90;;;;;;5114191;28;20288;-71
2022/06/29 03:53:12;;;;;;;0.40;0.40;;;18.80;99.90;;;;;;5116492;28;20221;-70
2022/06/29 03:56:01;;;;;;;0.40;0.40;;;18.80;99.90;;;;;;5117205;28;20199;-71
2022/06/29 03:58:49;;;;;;;0.40;0.40;;;18.90;99.90;;;;;;5117465;27;20195;-71
2022/06/29 04:01:38;;;;;;;0.40;0.40;;;18.80;99.90;;;;;;5114242;28;20223;-71
2022/06/29 04:04:26;;;;;;;0.40;0.40;;;18.90;99.90;;;;;;5115968;28;20188;-71
2022/06/29 04:07:14;;;;;;;0.40;0.40;;;18.80;99.90;;;;;;5117063;27;20698;-71
2022/06/29 04:10:02;;;;;;;0.40;0.40;;;18.80;99.90;;;;;;5115906;28;20571;-71
2022/06/29 04:12:52;;;;;;;0.40;0.40;;;18.80;99.90;;;;;;5116214;28;20223;-71
2022/06/29 04:15:40;;;;;;;0.40;0.40;;;18.90;99.90;;;;;;5115987;28;20195;-71
2022/06/29 04:18:28;;;;;;;0.40;0.40;;;18.90;99.90;;;;;;5084484;22;20728;-71
2022/06/29 04:21:16;;;;;;;0.40;0.40;;;18.90;99.90;;;;;;5071881;28;20576;-70
2022/06/29 04:24:05;;;;;;;0.40;0.40;;;18.90;99.90;;;;;;5072853;28;20197;-71
2022/06/29 04:26:53;;;;;;;0.40;0.40;;;18.90;99.90;;;;;;5076686;28;20292;-71
2022/06/29 04:29:43;;;;;;;0.40;0.40;;;19.00;99.90;;;;;;5092119;28;20228;-71
2022/06/29 04:32:31;;;;;;;0.40;0.40;;;19.00;99.90;;;;;;5091959;28;20279;-73
2022/06/29 04:35:19;;;;;;;0.40;0.40;;;19.10;99.90;;;;;;5091107;28;20216;-70
2022/06/29 04:38:07;;;;;;;0.40;0.40;;;19.10;99.90;;;;;;5091921;28;20307;-72
2022/06/29 04:40:55;;;;;;;0.43;0.43;;;19.20;99.90;;;;;;5092090;28;20249;-71
2022/06/29 04:43:43;;;;;;;0.40;0.40;;;19.20;99.90;;;;;;5091864;28;20204;-72
2022/06/29 04:46:33;;;;;;;0.40;0.40;;;19.30;99.90;;;;;;5091988;28;20196;-76
2022/06/29 04:49:21;;;;;;;0.50;0.50;;;19.30;99.90;;;;;;5091688;28;20600;-72
2022/06/29 04:52:09;;;;;;;0.40;0.40;;;19.30;99.90;;;;;;5091163;28;20203;-74
2022/06/29 04:54:57;;;;;;;0.40;0.40;;;19.30;99.90;;;;;;5090901;28;20216;-74
2022/06/29 04:57:46;;;;;;;0.40;0.40;;;19.40;99.90;;;;;;5091142;28;20220;-74
2022/06/29 05:00:34;;;;;;;0.40;0.40;;;19.40;99.90;;;;;;5091495;28;20200;-74
2022/06/29 05:03:23;;;;;;;0.47;0.47;;;19.40;99.90;;;;;;5090723;28;20200;-74
2022/06/29 05:06:11;;;;;;;0.40;0.40;;;19.40;99.90;;;;;;5091494;28;20601;-70
2022/06/29 05:08:59;;;;;;;0.47;0.47;;;19.40;99.90;;;;;;5091173;28;20207;-72
2022/06/29 05:11:48;;;;;;;0.40;0.40;;;19.50;99.90;;;;;;5091008;28;20242;-73
2022/06/29 05:14:36;;;;;;;0.50;0.50;;;19.50;99.90;;;;;;5090784;28;20234;-71
2022/06/29 05:17:24;;;;;;;0.50;0.50;;;19.60;99.90;;;;;;5092058;28;20259;-72
2022/06/29 05:20:14;;;;;;;0.40;0.40;;;19.60;99.90;;;;;;5087822;28;20195;-70
2022/06/29 05:23:04;;;;;;;0.47;0.47;;;19.80;99.90;;;;;;5091875;28;20245;-70
2022/06/29 05:25:52;;;;;;;0.40;0.40;;;19.80;99.90;;;;;;5090975;28;20265;-72
2022/06/29 05:28:40;;;;;;;0.40;0.40;;;19.90;99.90;;;;;;5090913;28;20293;-71
2022/06/29 05:31:31;;;;;;;0.47;0.47;;;20.00;99.90;;;;;;5091615;28;20680;-71
2022/06/29 05:34:19;;;;;;;0.40;0.40;;;20.10;99.90;;;;;;5090674;28;20212;-71
2022/06/29 05:37:08;;;;;;;0.40;0.40;;;20.30;99.90;;;;;;5090965;28;20222;-70
2022/06/29 05:39:56;;;;;;;0.47;0.47;;;20.40;99.90;;;;;;5090554;28;20207;-72
2022/06/29 05:42:45;;;;;;;0.40;0.40;;;20.50;99.90;;;;;;5088715;28;20208;-71
2022/06/29 05:45:33;;;;;;;0.40;0.40;;;20.70;99.90;;;;;;5090640;28;20196;-70
2022/06/29 05:48:21;;;;;;;0.50;0.50;;;20.80;99.90;;;;;;5090556;28;20227;-71
2022/06/29 05:51:09;;;;;;;0.40;0.40;;;20.80;99.90;;;;;;5090464;28;20687;-71
2022/06/29 05:53:59;;;;;;;0.47;0.47;;;21.00;99.90;;;;;;5088994;28;20207;-72
2022/06/29 05:56:47;;;;;;;0.40;0.40;;;21.00;99.90;;;;;;5090899;28;20235;-74
2022/06/29 05:59:35;;;;;;;0.40;0.40;;;21.10;99.90;;;;;;5090422;28;20200;-73
2022/06/29 06:02:23;;;;;;;0.40;0.40;;;21.20;99.90;;;;;;5083651;28;20658;-74
2022/06/29 06:05:12;;;;;;;0.40;0.40;;;21.30;99.90;;;;;;5089861;28;20200;-73
2022/06/29 06:08:00;;;;;;;0.40;0.40;;;21.30;99.90;;;;;;5090656;28;20220;-73
2022/06/29 06:10:49;;;;;;;0.50;0.50;;;21.30;99.90;;;;;;5090218;28;20203;-74
2022/06/29 06:13:37;;;;;;;0.47;0.47;;;21.40;99.90;;;;;;5089914;28;20293;-74
2022/06/29 06:16:25;;;;;;;0.40;0.40;;;21.50;99.90;;;;;;5090103;28;20192;-72
2022/06/29 06:19:29;;;;;;;0.50;0.50;;;21.50;99.90;;;;;;5089672;28;20200;-72
2022/06/29 06:22:17;;;;;;;0.40;0.40;;;21.70;99.90;;;;;;5071528;28;20196;-70
2022/06/29 06:25:06;;;;;;;0.50;0.50;;;21.80;99.90;;;;;;5070703;28;20196;-71
2022/06/29 06:27:55;;;;;;;0.50;0.50;;;22.00;99.90;;;;;;5070668;28;20240;-72
2022/06/29 06:30:43;;;;;;;0.50;0.50;;;22.10;99.90;;;;;;5070179;28;20200;-71
2022/06/29 06:33:32;;;;;;;0.50;0.50;;;22.30;99.90;;;;;;5070391;28;20208;-71
2022/06/29 06:36:20;;;;;;;0.50;0.50;;;22.40;99.90;;;;;;5071092;28;20217;-71
2022/06/29 06:39:08;;;;;;;0.40;0.40;;;22.50;99.90;;;;;;5073960;28;20208;-71
2022/06/29 06:41:56;;;;;;;0.40;0.40;;;22.60;99.90;;;;;;5073071;28;20208;-69
2022/06/29 06:44:45;;;;;;;0.40;0.40;;;22.70;99.90;;;;;;5074676;28;20192;-70
2022/06/29 06:47:34;;;;;;;0.40;0.40;;;22.80;99.90;;;;;;5073290;28;20736;-71
2022/06/29 06:50:22;;;;;;;0.40;0.40;;;22.90;99.90;;;;;;5073758;28;20262;-69
2022/06/29 06:53:10;;;;;;;0.40;0.40;;;23.00;99.90;;;;;;5084185;28;20651;-71
2022/06/29 06:55:58;;;;;;;0.40;0.40;;;23.10;99.90;;;;;;5093687;28;20219;-69
2022/06/29 06:58:47;;;;;;;0.50;0.50;;;23.30;99.90;;;;;;5074610;28;20341;-69
2022/06/29 07:01:42;;;;;;;0.40;0.40;;;23.40;99.90;;;;;;5072656;28;20692;-69
2022/06/29 07:04:36;;;;;;;0.40;0.40;;;23.60;99.90;;;;;;5073322;28;20280;-69
2022/06/29 07:07:25;;;;;;;0.50;0.50;;;23.80;99.90;;;;;;5073148;28;20243;-71
2022/06/29 07:10:13;;;;;;;0.40;0.40;;;23.90;99.90;;;;;;5073345;28;20196;-69
2022/06/29 07:13:01;;;;;;;0.40;0.40;;;24.10;99.90;;;;;;5073222;28;20207;-69
2022/06/29 07:15:49;;;;;;;0.52;0.52;;;24.20;99.90;;;;;;5075477;28;20220;-69
2022/06/29 07:18:39;;;;;;;0.43;0.43;;;24.20;99.90;;;;;;5074210;28;20247;-69
2022/06/29 07:21:27;;;;;;;0.40;0.40;;;24.30;99.90;;;;;;5072382;28;20201;-71
2022/06/29 07:24:16;;;;;;;0.50;0.50;;;24.30;99.90;;;;;;5073870;28;20199;-71
2022/06/29 07:27:04;;;;;;;0.40;0.40;;;24.40;99.90;;;;;;5074089;28;20224;-71
2022/06/29 07:29:53;;;;;;;0.40;0.40;;;24.50;99.90;;;;;;5076373;28;20203;-69
2022/06/29 07:32:41;;;;;;;0.40;0.40;;;24.50;99.90;;;;;;5093841;28;20196;-69
2022/06/29 07:35:30;;;;;;;0.40;0.40;;;24.70;99.90;;;;;;5093759;28;20882;-70
2022/06/29 07:38:19;;;;;;;0.40;0.40;;;24.90;99.90;;;;;;5093135;28;20960;-69
2022/06/29 07:41:07;;;;;;;0.40;0.40;;;25.10;99.90;;;;;;5092827;28;20211;-69
2022/06/29 07:43:55;;;;;;;1.10;1.10;;;25.30;99.90;;;;;;5092848;28;20204;-68
2022/06/29 07:46:43;;;;;;;0.40;0.40;;;25.50;99.90;;;;;;5091600;28;20220;-68
2022/06/29 07:49:32;;;;;;;0.40;0.40;;;25.70;99.90;;;;;;5092626;28;20745;-70
2022/06/29 07:52:21;;;;;;;0.40;0.40;;;25.80;99.90;;;;;;5097860;28;20198;-70
2022/06/29 07:55:10;;;;;;;0.40;0.40;;;26.00;99.90;;;;;;5092377;28;20215;-70
2022/06/29 07:57:58;;;;;;;0.50;0.50;;;26.10;99.90;;;;;;5083746;28;20569;-70
2022/06/29 08:00:47;;;;;;;0.40;0.40;;;26.20;99.60;;;;;;5071799;28;20934;-70
2022/06/29 08:03:35;;;;;;;0.40;0.40;;;26.40;99.20;;;;;;5091809;28;20691;-70
2022/06/29 08:06:23;;;;;;;0.40;0.40;;;26.50;98.00;;;;;;5092640;28;20195;-70
2022/06/29 08:09:13;;;;;;;0.40;0.40;;;26.60;97.30;;;;;;5099838;28;20572;-70
2022/06/29 08:12:08;;;;;;;0.40;0.40;;;26.80;97.00;;;;;;5099730;28;20214;-70
2022/06/29 08:14:56;;;;;;;0.40;0.40;;;27.00;97.20;;;;;;5099336;28;20210;-70
2022/06/29 08:17:44;;;;;;;0.50;0.50;;;27.10;95.90;;;;;;5078904;28;20282;-72
2022/06/29 08:20:32;;;;;;;0.40;0.40;;;27.20;95.90;;;;;;5090164;28;20855;-68
2022/06/29 08:23:24;;;;;;;0.40;0.40;;;27.30;95.60;;;;;;5091885;28;20551;-68
2022/06/29 08:26:14;;;;;;;0.50;0.50;;;27.50;94.20;;;;;;5091265;28;20755;-68
2022/06/29 08:29:22;;;;;;;0.50;0.50;;;27.60;92.30;;;;;;5089372;28;20206;-69
2022/06/29 08:32:10;;;;;;;0.88;0.88;;;27.60;91.00;;;;;;5087008;28;20211;-68
2022/06/29 08:34:59;;;;;;;0.47;0.47;;;27.30;90.00;;;;;;5087522;28;20204;-68
2022/06/29 08:37:54;;;;;;;0.50;0.50;;;27.20;90.60;;;;;;5085066;28;20216;-68
2022/06/29 08:40:44;;;;;;;0.40;0.40;;;27.10;90.60;;;;;;5087744;28;20672;-68
2022/06/29 08:43:34;;;;;;;0.50;0.50;;;26.80;90.00;;;;;;5083282;28;20197;-69
2022/06/29 08:46:22;;;;;;;0.40;0.40;;;26.50;90.50;;;;;;5089043;28;20208;-68
2022/06/29 08:49:10;;;;;;;0.40;0.40;;;26.30;90.20;;;;;;5092687;28;20298;-70
2022/06/29 08:52:03;;;;;;;0.40;0.40;;;26.20;90.10;;;;;;5101876;28;20257;-69
2022/06/29 08:54:53;;;;;;;0.40;0.40;;;26.20;89.50;;;;;;5095551;28;20202;-70
2022/06/29 08:57:43;;;;;;;0.40;0.40;;;26.30;89.30;;;;;;5093010;28;20258;-69
2022/06/29 09:00:36;;;;;;;0.40;0.40;;;26.50;89.30;;;;;;5088292;28;20214;-70
2022/06/29 09:03:25;;;;;;;0.40;0.40;;;26.80;87.30;;;;;;5089501;28;20215;-70
2022/06/29 09:06:13;;;;;;;0.40;0.40;;;27.10;86.80;;;;;;5091359;28;20668;-70
2022/06/29 09:09:01;;;;;;;0.40;0.40;;;27.20;85.70;;;;;;5091611;28;20326;-70
2022/06/29 09:11:51;;;;;;;0.40;0.40;;;27.20;85.40;;;;;;5090610;28;20230;-68
2022/06/29 09:14:40;;;;;;;0.40;0.40;;;27.30;85.20;;;;;;5091721;28;20207;-68
2022/06/29 09:17:36;;;;;;;0.40;0.40;;;27.60;86.80;;;;;;5092205;28;20762;-68
2022/06/29 09:20:36;;;;;;;0.40;0.40;;;28.00;80.90;;;;;;5089378;28;20199;-69
2022/06/29 09:23:31;;;;;;;0.50;0.50;;;28.20;79.50;;;;;;5091024;28;20202;-68
2022/06/29 09:26:19;;;;;;;0.40;0.40;;;28.20;77.40;;;;;;5093310;28;20221;-69
2022/06/29 09:29:19;;;;;;;0.40;0.40;;;28.30;77.30;;;;;;5094657;28;20204;-69
2022/06/29 09:32:13;;;;;;;0.40;0.40;;;28.30;77.00;;;;;;5090551;28;20206;-68
2022/06/29 09:35:13;;;;;;;0.40;0.40;;;28.30;76.00;;;;;;5091013;28;20288;-68
2022/06/29 09:38:21;;;;;;;0.40;0.40;;;28.20;74.80;;;;;;5090847;28;20852;-68
2022/06/29 09:41:11;;;;;;;0.40;0.40;;;28.10;72.90;;;;;;5091237;28;20214;-68
2022/06/29 09:43:59;;;;;;;0.73;0.73;;;28.20;73.60;;;;;;5098031;28;20211;-69
2022/06/29 09:46:52;;;;;;;0.40;0.40;;;28.20;73.20;;;;;;5100557;28;20211;-68
2022/06/29 09:49:41;;;;;;;0.40;0.40;;;28.40;73.30;;;;;;5083743;28;20236;-69
2022/06/29 09:52:33;;;;;;;0.40;0.40;;;28.60;73.20;;;;;;5089801;28;20742;-68
2022/06/29 09:55:21;;;;;;;0.40;0.40;;;29.00;73.30;;;;;;5070980;28;20204;-68
2022/06/29 09:58:10;;;;;;;0.40;0.40;;;29.50;71.10;;;;;;5095631;28;20211;-68
2022/06/29 10:04:09;;;;;;;0.47;0.47;;;29.80;70.90;;;;;;5083019;28;20203;-68
2022/06/29 10:06:57;;;;;;;0.40;0.40;;;29.90;66.80;;;;;;5085206;28;20220;-69
2022/06/29 10:09:47;;;;;;;0.40;0.40;;;29.80;68.40;;;;;;5088891;28;20228;-67
2022/06/29 10:16:26;;;;;;;0.40;0.40;;;29.70;68.80;;;;;;5080777;28;20290;-68
2022/06/29 10:19:38;;;;;;;0.40;0.40;;;29.50;67.00;;;;;;5127782;22;20234;-70
2022/06/29 10:22:29;;;;;;;0.40;0.40;;;29.40;66.40;;;;;;5114840;28;20218;-72
2022/06/29 10:25:27;;;;;;;0.40;0.40;;;29.10;65.70;;;;;;5114592;28;20298;-70
2022/06/29 10:28:20;;;;;;;0.40;0.40;;;28.90;65.20;;;;;;5119123;27;20707;-70
2022/06/29 10:31:09;;;;;;;0.40;0.40;;;28.60;65.30;;;;;;5136424;27;20704;-71
2022/06/29 10:33:57;;;;;;;0.40;0.40;;;28.30;66.10;;;;;;5137403;27;20206;-72
2022/06/29 10:37:04;;;;;;;0.40;0.40;;;28.40;66.30;;;;;;5136886;27;20202;-72
2022/06/29 10:39:53;;;;;;;0.40;0.40;;;28.30;66.20;;;;;;5134085;27;20218;-70
2022/06/29 10:45:57;;;;;;;0.40;0.40;;;28.50;66.30;;;;;;5137843;27;20617;-70
2022/06/29 10:49:19;;;;;;;0.40;0.40;;;28.70;66.20;;;;;;5134343;27;20214;-71
2022/06/29 10:52:07;;;;;;;0.40;0.40;;;28.90;66.20;;;;;;5134019;27;20591;-72
2022/06/29 10:55:03;;;;;;;0.40;0.40;;;29.20;66.00;;;;;;5129544;27;20203;-73
2022/06/29 10:57:53;;;;;;;0.40;0.40;;;29.60;63.50;;;;;;5135603;27;20210;-70
2022/06/29 11:00:43;;;;;;;0.40;0.40;;;29.70;64.20;;;;;;5136645;27;20685;-70
2022/06/29 11:03:31;;;;;;;0.40;0.40;;;29.80;62.60;;;;;;5137017;27;20195;-71
2022/06/29 11:12:53;;;;;;;0.40;0.40;;;30.20;63.40;;;;;;5136259;27;20218;-71
2022/06/29 11:15:41;;;;;;;0.40;0.40;;;30.40;63.10;;;;;;5134437;27;20662;-72
2022/06/29 11:18:31;;;;;;;0.60;0.60;;;30.50;62.70;;;;;;5116473;27;20222;-72
2022/06/29 11:21:20;;;;;;;0.40;0.40;;;30.80;63.90;;;;;;5117852;27;20249;-72
2022/06/29 11:24:08;;;;;;;0.40;0.40;;;31.00;63.80;;;;;;5131686;27;20210;-72
2022/06/29 11:26:56;;;;;;;0.40;0.40;;;31.10;64.30;;;;;;5132734;27;20197;-71
2022/06/29 11:29:46;;;;;;;0.40;0.40;;;31.20;64.50;;;;;;5133470;27;20226;-71
2022/06/29 11:32:38;;;;;;;0.40;0.40;;;31.10;64.20;;;;;;5134724;27;20252;-72
2022/06/29 11:35:29;;;;;;;0.52;0.52;;;30.80;64.50;;;;;;5133060;27;20602;-70
2022/06/29 11:38:17;;;;;;;0.40;0.40;;;30.70;65.70;;;;;;5134143;27;20226;-72
2022/06/29 11:41:11;;;;;;;0.40;0.40;;;30.90;65.60;;;;;;5135246;27;20199;-70
2022/06/29 11:44:27;;;;;;;0.40;0.40;;;31.00;65.20;;;;;;5134397;27;20203;-70
2022/06/29 11:47:22;;;;;;;0.40;0.40;;;31.20;64.40;;;;;;5128612;27;20203;-71
2022/06/29 11:50:15;;;;;;;0.40;0.40;;;31.20;64.40;;;;;;5113376;28;20194;-69
2022/06/29 11:53:03;;;;;;;0.40;0.40;;;31.00;61.50;;;;;;5125086;27;20283;-71
2022/06/29 11:55:58;;;;;;;0.40;0.40;;;30.80;61.20;;;;;;5134266;27;20198;-70
2022/06/29 11:58:49;;;;;;;0.40;0.40;;;30.70;62.40;;;;;;5132706;27;20218;-71
2022/06/29 12:01:38;;;;;;;0.40;0.40;;;30.60;61.10;;;;;;5135443;27;20580;-70
2022/06/29 12:04:31;;;;;;;0.40;0.40;;;30.50;61.70;;;;;;5135607;27;20224;-71
2022/06/29 12:07:21;;;;;;;0.40;0.40;;;30.60;61.00;;;;;;5137955;27;20662;-71
2022/06/29 12:10:09;;;;;;;0.40;0.40;;;31.10;61.50;;;;;;5138432;27;20701;-71
2022/06/29 12:12:57;;;;;;;0.40;0.40;;;31.40;60.00;;;;;;5136774;27;20198;-71
2022/06/29 12:15:49;;;;;;;0.40;0.40;;;31.70;60.00;;;;;;5138085;27;20705;-71
2022/06/29 12:18:37;;;;;;;0.40;0.40;;;32.10;60.00;;;;;;5137392;27;20227;-71
2022/06/29 12:21:27;;;;;;;0.40;0.40;;;32.10;59.20;;;;;;5136451;27;20566;-69
2022/06/29 12:24:17;;;;;;;0.40;0.40;;;32.00;59.80;;;;;;5134699;27;20202;-70
2022/06/29 12:27:06;;;;;;;0.40;0.40;;;31.80;58.40;;;;;;5133945;27;20202;-70
2022/06/29 12:29:54;;;;;;;0.40;0.40;;;31.50;58.60;;;;;;5134662;27;20241;-70
2022/06/29 12:32:42;;;;;;;0.40;0.40;;;31.30;58.80;;;;;;5134847;27;20195;-70
2022/06/29 12:35:30;;;;;;;0.40;0.40;;;30.90;59.70;;;;;;5135980;27;20199;-71
2022/06/29 12:38:24;;;;;;;0.40;0.40;;;30.70;59.80;;;;;;5134528;27;20222;-71
2022/06/29 12:41:12;;;;;;;0.40;0.40;;;30.60;60.80;;;;;;5131376;27;20199;-70
2022/06/29 12:44:02;;;;;;;0.40;0.40;;;30.50;61.40;;;;;;5129791;27;20581;-70
2022/06/29 12:46:50;;;;;;;0.40;0.40;;;30.80;62.50;;;;;;5131430;27;20193;-69
2022/06/29 12:49:38;;;;;;;0.40;0.40;;;31.10;61.10;;;;;;5132678;27;20826;-70
2022/06/29 12:52:26;;;;;;;0.40;0.40;;;31.80;60.50;;;;;;5113544;28;20199;-70
2022/06/29 12:55:16;;;;;;;0.40;0.40;;;32.80;58.90;;;;;;5111746;28;20225;-71
2022/06/29 12:58:04;;;;;;;0.40;0.40;;;34.90;52.50;;;;;;5129770;27;20207;-70
2022/06/29 13:00:52;;;;;;;2.15;2.05;;;35.80;53.50;;;;;;5133130;27;20201;-71
2022/06/29 13:03:41;;;;;;;1.75;0.63;;;36.50;51.90;;;;;;5132903;27;20230;-70
2022/06/29 13:06:29;;;;;;;0.40;0.40;;;36.40;50.60;;;;;;5133494;27;20234;-71
2022/06/29 13:09:17;;;;;;;0.40;0.40;;;35.90;50.20;;;;;;5133432;27;20226;-72
2022/06/29 13:12:07;;;;;;;0.40;0.40;;;35.10;50.80;;;;;;5132266;27;20643;-72
2022/06/29 13:14:56;;;;;;;0.40;0.40;;;34.20;49.80;;;;;;5132237;27;20195;-72
2022/06/29 13:17:44;;;;;;;0.40;0.40;;;33.40;50.20;;;;;;5129393;27;20215;-71
2022/06/29 13:20:32;;;;;;;0.40;0.40;;;32.60;49.40;;;;;;5133220;27;20206;-70
2022/06/29 13:23:21;;;;;;;0.40;0.40;;;;;;;;;;5128983;27;20194;-71
2022/06/29 13:26:09;;;;;;;0.40;0.40;;;31.80;50.60;;;;;;5133663;28;20213;-70
2022/06/29 13:28:59;;;;;;;0.40;0.40;;;31.70;51.70;;;;;;5133430;28;20218;-70
2022/06/29 13:31:47;;;;;;;0.40;0.40;;;31.40;50.60;;;;;;5133465;28;20575;-71
2022/06/29 13:34:35;;;;;;;0.40;0.40;;;31.10;50.80;;;;;;5129996;28;20324;-70
2022/06/29 13:37:23;;;;;;;0.40;0.40;;;30.80;51.60;;;;;;5130002;28;20247;-70
2022/06/29 13:40:13;;;;;;;0.40;0.40;;;30.80;52.70;;;;;;5132747;28;20247;-70
2022/06/29 13:43:01;;;;;;;0.40;0.40;;;30.90;52.90;;;;;;5133336;28;20232;-70
2022/06/29 13:45:55;;;;;;;0.40;0.40;;;31.10;53.20;;;;;;5134647;27;20205;-70
2022/06/29 13:48:43;;;;;;;0.40;0.40;;;31.20;54.00;;;;;;5136088;27;20206;-71
2022/06/29 13:51:32;;;;;;;0.40;0.40;;;31.20;55.40;;;;;;5134357;27;20673;-70
2022/06/29 13:54:20;;;;;;;0.40;0.40;;;31.10;56.20;;;;;;5136656;27;20202;-71
2022/06/29 13:57:08;;;;;;;0.40;0.40;;;31.30;56.80;;;;;;5136567;27;20747;-71
2022/06/29 14:00:05;;;;;;;0.40;0.40;;;31.20;55.50;;;;;;5137422;27;20351;-71
2022/06/29 14:02:55;;;;;;;0.40;0.40;;;31.20;54.80;;;;;;5137578;27;20267;-72
2022/06/29 14:05:43;;;;;;;0.43;0.43;;;31.10;54.30;;;;;;5138003;27;20202;-70
2022/06/29 14:08:31;;;;;;;0.40;0.40;;;;;;;;;;5138912;27;20634;-70
2022/06/29 14:11:40;;;;;;;0.40;0.40;;;30.50;56.90;;;;;;5136799;27;20213;-71
2022/06/29 14:14:28;;;;;;;0.40;0.40;;;30.10;58.50;;;;;;5137062;27;20209;-71
2022/06/29 14:17:16;;;;;;;0.40;0.40;;;29.80;58.00;;;;;;5137483;27;20674;-71
2022/06/29 14:20:07;;;;;;;0.40;0.40;;;29.70;58.30;;;;;;5135322;27;20223;-71
2022/06/29 14:22:55;;;;;;;0.40;0.40;;;29.50;59.20;;;;;;5135433;27;20225;-71
2022/06/29 14:25:43;;;;;;;0.40;0.40;;;29.20;59.00;;;;;;5137711;27;20194;-71
2022/06/29 14:28:32;;;;;;;0.40;0.40;;;29.10;59.90;;;;;;5135065;27;20217;-71
2022/06/29 14:31:20;;;;;;;0.40;0.40;;;29.10;59.30;;;;;;5136278;27;20198;-71
2022/06/29 14:34:08;;;;;;;0.40;0.40;;;28.90;59.90;;;;;;5135055;27;20199;-69
2022/06/29 14:36:57;;;;;;;0.40;0.40;;;28.60;59.10;;;;;;5134734;27;20245;-71
2022/06/29 14:39:46;;;;;;;0.40;0.40;;;28.50;59.60;;;;;;5133779;27;20233;-70
2022/06/29 14:42:35;;;;;;;0.40;0.40;;;28.50;59.20;;;;;;5135920;27;20195;-70
2022/06/29 14:45:24;;;;;;;0.40;0.40;;;28.70;59.60;;;;;;5135017;27;20187;-70
2022/06/29 14:48:12;;;;;;;0.40;0.40;;;30.50;58.30;;;;;;5133946;27;20226;-70
2022/06/29 14:51:00;;;;;;;0.40;0.40;;;34.80;54.30;;;;;;5133060;27;20206;-70
2022/06/29 14:53:49;;;;;;;0.40;0.40;;;38.50;49.30;;;;;;5130927;27;20327;-71
2022/06/29 14:56:38;;;;;;;0.40;0.40;;;39.70;46.40;;;;;;5133047;27;20202;-71
2022/06/29 14:59:47;;;;;;;0.40;0.40;;;38.90;46.00;;;;;;5132334;27;20311;-71
2022/06/29 15:02:35;;;;;;;0.40;0.40;;;37.30;47.60;;;;;;5115254;28;20195;-72
2022/06/29 15:05:23;;;;;;;0.40;0.40;;;35.60;49.50;;;;;;5114734;28;20225;-71
2022/06/29 15:08:11;;;;;;;0.40;0.40;;;34.10;50.70;;;;;;5113699;28;20220;-70